Time;durP1;ratioP1;P1;durP2;ratioP2;P2;SDS_P1;SDS_P2;PMS_P1;PMS_P2;Temp;Humidity;BMP_temperature;BMP_pressure;BME280_temperature;BME280_humidity;BME280_pressure;Samples;Min_cycle;Max_cycle;Signal;HPM_P1;HPM_P2
2021/12/18 00:00:47;;;;;;;16.52;8.25;;;;;;;1.09;100.00;100727.50;4135547;28;20080;-71
2021/12/18 00:02:47;;;;;;;16.20;7.53;;;;;;;1.12;100.00;100729.69;4137649;28;20038;-71
2021/12/18 00:04:48;;;;;;;11.68;7.40;;;;;;;1.12;100.00;100740.59;4138707;28;20046;-71
2021/12/18 00:06:49;;;;;;;12.65;7.57;;;;;;;1.13;100.00;100725.06;4137131;28;20161;-71
2021/12/18 00:08:49;;;;;;;13.52;7.70;;;;;;;1.18;100.00;100727.00;4136803;28;20042;-71
2021/12/18 00:10:49;;;;;;;10.02;7.28;;;;;;;1.19;100.00;100721.28;4137372;28;20384;-71
2021/12/18 00:12:52;;;;;;;12.38;7.72;;;;;;;1.17;100.00;100728.09;4138644;28;20061;-71
2021/12/18 00:14:52;;;;;;;11.38;7.00;;;;;;;1.17;100.00;100719.91;4137542;28;20030;-71
2021/12/18 00:16:52;;;;;;;11.80;8.30;;;;;;;1.17;100.00;100723.47;4136980;28;20115;-71
2021/12/18 00:18:55;;;;;;;11.82;7.80;;;;;;;1.20;100.00;100716.66;4136139;28;20564;-71
2021/12/18 00:20:57;;;;;;;;;;;;;;;1.25;100.00;100724.88;4138866;28;20057;-71
2021/12/18 00:22:58;;;;;;;11.95;7.45;;;;;;;1.27;100.00;100725.44;4137720;28;19917;-71
2021/12/18 00:24:58;;;;;;;12.00;7.65;;;;;;;1.26;100.00;100721.06;4138328;28;20044;-71
2021/12/18 00:26:59;;;;;;;12.27;7.50;;;;;;;1.28;100.00;100722.44;4135869;28;20057;-71
2021/12/18 00:29:00;;;;;;;10.40;6.65;;;;;;;1.30;100.00;100728.44;4135264;28;20080;-71
2021/12/18 00:31:01;;;;;;;11.15;7.07;;;;;;;1.31;100.00;100729.28;4136607;28;20506;-71
2021/12/18 00:33:02;;;;;;;11.10;6.80;;;;;;;1.33;100.00;100735.31;4135508;28;20201;-71
2021/12/18 00:35:03;;;;;;;11.48;7.20;;;;;;;1.33;100.00;100717.03;4135481;28;20505;-71
2021/12/18 00:37:03;;;;;;;12.32;6.63;;;;;;;1.36;100.00;100734.78;4136044;28;20045;-71
2021/12/18 00:39:03;;;;;;;11.40;7.22;;;;;;;1.34;100.00;100728.75;4137747;28;20046;-71
2021/12/18 00:43:21;;;;;;;15.80;6.90;;;;;;;1.45;100.00;100722.28;4136554;28;20308;-71
2021/12/18 00:45:21;;;;;;;11.82;7.10;;;;;;;1.43;100.00;100713.53;4136503;28;20475;-71
2021/12/18 00:47:22;;;;;;;11.75;7.38;;;;;;;1.43;100.00;100707.28;4136310;28;20147;-71
2021/12/18 00:49:24;;;;;;;12.68;6.97;;;;;;;1.42;100.00;100708.38;4137365;28;20081;-71
2021/12/18 00:51:24;;;;;;;12.50;6.80;;;;;;;1.44;100.00;100719.81;4136564;28;20042;-71
2021/12/18 00:53:25;;;;;;;10.18;7.10;;;;;;;1.46;100.00;100714.91;4135670;28;20777;-71
2021/12/18 00:55:25;;;;;;;10.50;6.13;;;;;;;1.44;100.00;100712.47;4137387;28;20724;-71
2021/12/18 00:57:25;;;;;;;14.35;8.05;;;;;;;1.49;100.00;100722.56;4136905;28;20064;-71
2021/12/18 00:59:26;;;;;;;12.57;7.22;;;;;;;1.51;100.00;100721.25;4137645;28;20045;-71
2021/12/18 01:01:28;;;;;;;14.70;7.25;;;;;;;1.52;100.00;100716.59;4135531;28;20038;-71
2021/12/18 01:03:29;;;;;;;12.75;7.32;;;;;;;1.53;100.00;100721.78;4134729;28;20053;-71
2021/12/18 01:05:31;;;;;;;15.55;7.93;;;;;;;1.54;100.00;100720.69;4134361;28;20159;-71
2021/12/18 01:07:31;;;;;;;13.88;7.75;;;;;;;1.58;100.00;100719.09;4136070;28;20092;-71
2021/12/18 01:09:57;;;;;;;10.30;6.28;;;;;;;1.56;100.00;100721.25;4136611;28;20041;-71
2021/12/18 01:11:57;;;;;;;16.30;7.88;;;;;;;1.58;100.00;100721.84;4136718;28;20072;-71
2021/12/18 01:16:24;;;;;;;16.05;8.55;;;;;;;1.66;100.00;100723.25;4135449;28;20049;-71
2021/12/18 01:23:02;;;;;;;14.82;7.72;;;;;;;1.71;100.00;100733.34;4136575;28;20283;-71
2021/12/18 01:25:04;;;;;;;18.27;8.98;;;;;;;1.71;100.00;100736.06;4134672;28;20173;-71
2021/12/18 01:27:04;;;;;;;13.57;7.40;;;;;;;1.70;100.00;100743.44;4133424;28;20116;-71
2021/12/18 01:29:04;;;;;;;16.77;8.02;;;;;;;1.73;100.00;100750.28;4136420;28;20560;-71
2021/12/18 01:31:05;;;;;;;14.50;7.93;;;;;;;1.72;100.00;100752.19;4134409;28;20403;-71
2021/12/18 01:33:06;;;;;;;13.00;7.45;;;;;;;1.71;100.00;100739.63;4136703;28;20058;-71
2021/12/18 01:35:07;;;;;;;14.93;7.72;;;;;;;1.74;100.00;100741.00;4136140;28;20495;-71
2021/12/18 01:37:07;;;;;;;17.98;8.75;;;;;;;1.74;100.00;100739.13;4135237;28;20042;-71
2021/12/18 01:39:08;;;;;;;24.23;11.60;;;;;;;1.75;100.00;100742.66;4137120;28;20395;-71
2021/12/18 01:41:08;;;;;;;23.70;10.00;;;;;;;1.79;100.00;100739.13;4135250;28;20147;-71
2021/12/18 01:44:13;;;;;;;20.60;9.48;;;;;;;1.77;100.00;100749.50;4136752;28;20480;-71
2021/12/18 01:52:32;;;;;;;17.30;9.25;;;;;;;1.79;100.00;100743.75;4136675;28;20123;-71
2021/12/18 01:54:33;;;;;;;15.10;8.77;;;;;;;1.77;100.00;100737.75;4135365;28;20042;-71
2021/12/18 01:56:33;;;;;;;12.93;8.40;;;;;;;1.74;100.00;100736.38;4134916;28;20077;-71
2021/12/18 01:58:33;;;;;;;13.57;8.25;;;;;;;1.67;100.00;100733.06;4134385;28;20145;-71
2021/12/18 02:00:41;;;;;;;18.02;9.82;;;;;;;1.67;100.00;100743.97;4136338;28;20084;-71
2021/12/18 02:02:41;;;;;;;14.95;9.18;;;;;;;1.66;100.00;100743.16;4136537;28;20121;-71
2021/12/18 02:04:41;;;;;;;13.60;8.68;;;;;;;1.65;100.00;100730.56;4136729;28;20042;-71
2021/12/18 02:06:42;;;;;;;13.43;9.15;;;;;;;1.62;100.00;100725.66;4135619;28;20418;-71
2021/12/18 02:08:44;;;;;;;14.25;8.23;;;;;;;1.63;100.00;100730.03;4136946;28;20045;-71
2021/12/18 02:10:52;;;;;;;13.90;8.95;;;;;;;1.61;100.00;100732.19;4136185;28;20482;-71
2021/12/18 02:13:02;;;;;;;14.35;9.45;;;;;;;1.64;100.00;100745.31;4134397;28;20097;-71
2021/12/18 02:21:51;;;;;;;14.32;9.85;;;;;;;1.56;100.00;100725.88;4135571;28;20057;-71
2021/12/18 02:23:51;;;;;;;13.20;8.25;;;;;;;1.54;100.00;100726.16;4135723;28;20057;-71
2021/12/18 02:25:52;;;;;;;14.50;9.02;;;;;;;1.46;100.00;100723.91;4135830;28;20466;-71
2021/12/18 02:27:55;;;;;;;19.10;10.43;;;;;;;1.43;100.00;100716.28;4134215;28;20071;-71
2021/12/18 02:29:55;;;;;;;14.70;8.73;;;;;;;1.42;100.00;100709.19;4135515;28;20144;-71
2021/12/18 02:31:56;;;;;;;16.50;9.75;;;;;;;1.42;100.00;100709.19;4136563;28;20414;-71
2021/12/18 02:33:57;;;;;;;16.75;9.60;;;;;;;1.43;100.00;100705.38;4135358;28;20479;-71
2021/12/18 02:35:59;;;;;;;15.68;9.40;;;;;;;1.46;100.00;100704.81;4134559;28;20046;-71
2021/12/18 02:38:08;;;;;;;18.40;10.00;;;;;;;1.49;100.00;100704.31;4134762;28;20084;-71
2021/12/18 02:42:18;;;;;;;18.58;9.50;;;;;;;1.57;100.00;100697.50;4152678;28;20565;-71
2021/12/18 02:44:19;;;;;;;17.13;10.05;;;;;;;1.58;100.00;100688.28;4150963;28;20065;-71
2021/12/18 02:46:20;;;;;;;21.77;10.63;;;;;;;1.59;100.00;100681.72;4152071;28;20071;-71
2021/12/18 02:48:20;;;;;;;20.88;10.35;;;;;;;1.62;100.00;100690.19;4151602;28;20033;-71
2021/12/18 02:50:21;;;;;;;19.92;9.55;;;;;;;1.65;100.00;100681.47;4151607;28;20095;-71
2021/12/18 02:52:29;;;;;;;17.23;9.00;;;;;;;1.68;100.00;100678.22;4152380;28;20433;-71
2021/12/18 02:54:30;;;;;;;21.30;10.30;;;;;;;1.67;100.00;100673.84;4151510;28;20455;-71
2021/12/18 02:56:30;;;;;;;19.30;7.90;;;;;;;1.74;100.00;100667.31;4150667;28;20538;-71
2021/12/18 02:58:36;;;;;;;15.23;7.95;;;;;;;1.81;100.00;100671.44;4151352;28;20104;-71
2021/12/18 03:00:36;;;;;;;18.83;9.02;;;;;;;1.81;100.00;100665.97;4150296;28;20041;-71
2021/12/18 03:02:42;;;;;;;22.63;9.80;;;;;;;1.81;100.00;100660.50;4151003;28;20048;-71
2021/12/18 03:04:46;;;;;;;16.83;8.00;;;;;;;1.80;100.00;100664.34;4152303;28;20045;-71
2021/12/18 03:06:48;;;;;;;22.15;8.65;;;;;;;1.81;100.00;100663.25;4150492;28;20050;-71
2021/12/18 03:24:36;;;;;;;20.30;8.43;;;;;;;1.97;100.00;100661.41;4151745;28;20044;-71
2021/12/18 03:26:36;;;;;;;14.85;7.40;;;;;;;1.98;100.00;100657.56;4149726;28;20131;-71
2021/12/18 03:28:36;;;;;;;22.90;9.38;;;;;;;2.09;100.00;100655.72;4151722;28;20529;-71
2021/12/18 03:30:37;;;;;;;24.70;10.02;;;;;;;2.06;100.00;100651.59;4150739;28;20046;-71
2021/12/18 03:32:37;;;;;;;22.55;8.85;;;;;;;2.07;100.00;100661.44;4151290;28;20442;-71
2021/12/18 03:34:38;;;;;;;23.08;8.60;;;;;;;2.08;100.00;100649.44;4151461;28;20045;-72
2021/12/18 03:36:39;;;;;;;17.58;9.00;;;;;;;2.06;100.00;100654.31;4151242;28;20065;-71
2021/12/18 03:38:39;;;;;;;22.52;10.00;;;;;;;2.03;100.00;100652.13;4154646;28;20494;-71
2021/12/18 03:40:40;;;;;;;20.63;8.82;;;;;;;2.08;100.00;100654.91;4154657;28;20049;-71
2021/12/18 03:42:40;;;;;;;19.67;8.23;;;;;;;2.11;100.00;100650.81;4153702;28;20388;-71
2021/12/18 03:44:41;;;;;;;25.27;9.70;;;;;;;2.06;100.00;100639.84;4154339;28;20041;-71
2021/12/18 03:46:41;;;;;;;19.67;8.20;;;;;;;2.06;100.00;100639.84;4153184;28;20073;-71
2021/12/18 03:48:41;;;;;;;18.48;8.25;;;;;;;2.04;100.00;100640.13;4155309;28;20277;-71
2021/12/18 03:50:45;;;;;;;19.13;7.40;;;;;;;2.02;100.00;100642.31;4154075;28;20038;-71
2021/12/18 03:52:47;;;;;;;17.60;7.68;;;;;;;2.00;100.00;100639.03;4154869;28;20045;-71
2021/12/18 03:54:47;;;;;;;17.63;7.72;;;;;;;2.02;100.00;100644.22;4154181;28;20045;-71
2021/12/18 03:56:48;;;;;;;17.05;7.82;;;;;;;2.03;100.00;100646.69;4153710;28;20608;-71
2021/12/18 03:58:48;;;;;;;16.38;7.10;;;;;;;2.02;100.00;100645.03;4154155;28;20152;-71
2021/12/18 04:00:48;;;;;;;18.45;7.18;;;;;;;2.03;100.00;100652.13;4153944;28;20038;-71
2021/12/18 04:02:49;;;;;;;15.80;7.30;;;;;;;2.03;100.00;100646.69;4151477;28;20045;-71
2021/12/18 04:04:49;;;;;;;18.38;7.18;;;;;;;2.00;100.00;100640.94;4152704;28;20144;-71
2021/12/18 04:06:50;;;;;;;16.88;7.78;;;;;;;2.06;100.00;100651.59;4152900;28;20335;-71
2021/12/18 04:08:50;;;;;;;14.80;7.38;;;;;;;2.04;100.00;100648.31;4153089;28;20041;-71
2021/12/18 04:10:51;;;;;;;16.92;7.90;;;;;;;2.07;100.00;100656.00;4153666;28;20046;-71
2021/12/18 04:12:58;;;;;;;12.23;6.60;;;;;;;2.06;100.00;100634.38;4152520;28;20491;-71
2021/12/18 04:14:59;;;;;;;16.40;7.30;;;;;;;2.08;100.00;100638.50;4152945;28;20052;-71
2021/12/18 04:16:59;;;;;;;18.52;8.27;;;;;;;2.10;100.00;100644.53;4152937;28;20526;-71
2021/12/18 04:19:01;;;;;;;16.15;8.68;;;;;;;2.08;100.00;100638.50;4154736;28;20056;-71
2021/12/18 04:21:02;;;;;;;16.40;8.20;;;;;;;2.06;100.00;100632.47;4154739;28;20047;-71
2021/12/18 04:23:03;;;;;;;16.38;8.43;;;;;;;2.08;100.00;100637.69;4152288;28;20640;-71
2021/12/18 04:25:05;;;;;;;16.95;8.63;;;;;;;2.06;100.00;100632.47;4153561;28;20069;-71
2021/12/18 04:27:05;;;;;;;14.77;7.55;;;;;;;2.04;100.00;100631.13;4151436;28;20041;-71
2021/12/18 04:29:06;;;;;;;17.02;8.23;;;;;;;2.07;100.00;100630.56;4153718;28;20038;-71
2021/12/18 04:31:06;;;;;;;14.57;7.32;;;;;;;2.06;100.00;100634.38;4154204;28;20136;-71
2021/12/18 04:33:07;;;;;;;17.77;8.05;;;;;;;2.07;100.00;100628.69;4151880;28;20325;-71
2021/12/18 04:35:08;;;;;;;14.27;7.60;;;;;;;2.07;100.00;100619.63;4151957;28;20052;-71
2021/12/18 04:37:08;;;;;;;18.20;7.60;;;;;;;2.09;100.00;100622.94;4150989;28;20045;-71
2021/12/18 04:39:08;;;;;;;14.85;6.85;;;;;;;2.12;100.00;100630.59;4154567;28;20343;-71
2021/12/18 04:41:10;;;;;;;16.65;8.10;;;;;;;2.12;100.00;100628.69;4153357;28;20704;-71
2021/12/18 04:43:11;;;;;;;13.25;6.47;;;;;;;2.14;100.00;100626.50;4154337;28;20510;-71
2021/12/18 04:45:11;;;;;;;13.50;6.43;;;;;;;2.15;100.00;100630.88;4154270;28;20072;-71
2021/12/18 04:47:11;;;;;;;15.93;7.55;;;;;;;2.17;100.00;100630.63;4151800;28;20061;-71
2021/12/18 04:49:13;;;;;;;12.68;5.30;;;;;;;2.22;100.00;100631.41;4152223;28;20434;-71
2021/12/18 04:51:13;;;;;;;12.55;5.30;;;;;;;2.34;100.00;100635.84;4152502;28;20052;-71
2021/12/18 04:53:13;;;;;;;11.43;5.82;;;;;;;2.32;100.00;100627.06;4154157;28;20057;-71
2021/12/18 04:55:14;;;;;;;11.05;5.43;;;;;;;2.35;100.00;100629.28;4153131;28;20544;-71
2021/12/18 04:57:14;;;;;;;13.38;5.97;;;;;;;2.37;100.00;100638.00;4152835;28;20088;-71
2021/12/18 04:59:15;;;;;;;10.75;5.00;;;;;;;2.33;100.00;100634.19;4154558;28;20486;-71
2021/12/18 05:01:16;;;;;;;7.20;4.15;;;;;;;2.34;100.00;100639.38;4152364;28;20406;-71
2021/12/18 05:03:18;;;;;;;12.73;5.65;;;;;;;2.36;100.00;100639.09;4152797;28;20127;-71
2021/12/18 05:05:18;;;;;;;13.37;6.23;;;;;;;2.40;100.00;100640.19;4153408;28;20056;-71
2021/12/18 05:07:19;;;;;;;17.58;6.22;;;;;;;2.43;100.00;100636.94;4151208;28;20627;-71
2021/12/18 05:09:19;;;;;;;13.95;6.25;;;;;;;2.42;100.00;100644.31;4152697;28;20056;-71
2021/12/18 05:11:20;;;;;;;12.25;5.80;;;;;;;2.41;100.00;100644.59;4152778;28;20148;-71
2021/12/18 05:13:20;;;;;;;9.35;4.55;;;;;;;2.42;100.00;100647.03;4152518;28;20518;-71
2021/12/18 05:15:20;;;;;;;15.05;6.32;;;;;;;2.40;100.00;100640.19;4153661;28;20045;-71
2021/12/18 05:17:21;;;;;;;12.13;6.38;;;;;;;2.40;100.00;100638.31;4152356;28;20046;-71
2021/12/18 05:19:21;;;;;;;11.90;5.78;;;;;;;2.38;100.00;100635.00;4153179;28;20111;-71
2021/12/18 05:21:21;;;;;;;14.85;6.35;;;;;;;2.40;100.00;100651.13;4154029;28;20050;-71
2021/12/18 05:23:22;;;;;;;12.05;6.05;;;;;;;2.38;100.00;100642.38;4152795;28;20073;-71
2021/12/18 05:25:22;;;;;;;16.25;10.30;;;;;;;2.38;100.00;100639.66;4153356;28;20075;-71
2021/12/18 05:27:22;;;;;;;13.68;6.78;;;;;;;2.39;100.00;100649.47;4153426;28;20403;-71
2021/12/18 05:29:23;;;;;;;14.35;6.13;;;;;;;2.40;100.00;100648.38;4151312;28;20489;-71
2021/12/18 05:31:23;;;;;;;10.60;5.50;;;;;;;2.40;100.00;100649.22;4147220;28;20049;-71
2021/12/18 05:33:23;;;;;;;11.70;5.68;;;;;;;2.43;100.00;100659.59;4150291;28;20340;-71
2021/12/18 05:35:24;;;;;;;12.45;5.95;;;;;;;2.43;100.00;100659.59;4150434;28;20081;-71
2021/12/18 05:39:29;;;;;;;12.88;5.82;;;;;;;2.42;100.00;100663.44;4149814;28;20049;-71
2021/12/18 05:41:30;;;;;;;12.05;4.97;;;;;;;2.40;100.00;100648.38;4150008;28;20362;-71
2021/12/18 05:43:30;;;;;;;14.02;6.43;;;;;;;2.40;100.00;100653.84;4149461;28;20289;-71
2021/12/18 05:45:31;;;;;;;9.27;4.85;;;;;;;2.43;100.00;100656.06;4149538;28;20398;-71
2021/12/18 05:47:31;;;;;;;12.07;5.28;;;;;;;2.47;100.00;100662.59;4150891;28;20415;-71
2021/12/18 05:49:32;;;;;;;14.18;5.90;;;;;;;2.45;100.00;100651.94;4150065;28;20121;-71
2021/12/18 05:51:33;;;;;;;11.85;5.72;;;;;;;2.45;100.00;100651.13;4150505;28;20091;-71
2021/12/18 05:53:33;;;;;;;12.40;6.20;;;;;;;2.45;100.00;100651.94;4150158;28;20506;-71
2021/12/18 05:55:34;;;;;;;15.82;7.68;;;;;;;2.46;100.00;100642.66;4151754;28;20049;-71
2021/12/18 05:57:34;;;;;;;13.70;6.60;;;;;;;2.48;100.00;100653.31;4147646;28;20456;-71
2021/12/18 05:59:36;;;;;;;12.25;6.38;;;;;;;2.49;100.00;100657.72;4150899;28;20038;-71
2021/12/18 06:01:36;;;;;;;12.02;7.20;;;;;;;2.51;100.00;100650.88;4150159;28;20099;-71
2021/12/18 06:03:37;;;;;;;15.32;7.50;;;;;;;2.53;100.00;100648.69;4149968;28;20050;-71
2021/12/18 06:05:37;;;;;;;14.50;7.47;;;;;;;2.57;100.00;100651.72;4150645;28;20041;-71
2021/12/18 06:07:59;;;;;;;10.93;6.32;;;;;;;2.58;100.00;100660.72;4150598;28;20128;-71
2021/12/18 06:09:59;;;;;;;10.45;5.88;;;;;;;2.56;100.00;100660.97;4148682;28;20076;-71
2021/12/18 06:12:03;;;;;;;9.85;5.15;;;;;;;2.56;100.00;100662.88;4149609;28;20597;-71
2021/12/18 06:14:03;;;;;;;12.07;6.40;;;;;;;2.54;100.00;100653.06;4149952;28;20041;-71
2021/12/18 06:16:07;;;;;;;13.27;5.80;;;;;;;2.54;100.00;100655.78;4151934;28;20285;-71
2021/12/18 06:18:07;;;;;;;18.25;8.32;;;;;;;2.60;100.00;100664.00;4151237;28;20106;-71
2021/12/18 06:20:09;;;;;;;15.40;7.47;;;;;;;2.62;100.00;100668.09;4152002;28;20033;-71
2021/12/18 06:22:09;;;;;;;14.53;7.83;;;;;;;2.63;100.00;100658.78;4152962;28;20459;-71
2021/12/18 06:24:10;;;;;;;13.30;5.97;;;;;;;2.68;100.00;100667.00;4152350;28;20067;-71
2021/12/18 06:26:11;;;;;;;9.55;5.25;;;;;;;2.68;100.00;100660.72;4151922;28;20316;-71
2021/12/18 06:28:11;;;;;;;11.23;6.13;;;;;;;2.66;100.00;100655.53;4151625;28;20254;-71
2021/12/18 06:30:12;;;;;;;14.27;6.55;;;;;;;2.68;100.00;100669.75;4151583;28;20501;-71
2021/12/18 06:32:12;;;;;;;11.15;6.63;;;;;;;2.65;100.00;100662.09;4152591;28;20720;-71
2021/12/18 06:34:13;;;;;;;16.10;8.88;;;;;;;2.68;100.00;100664.28;4151500;28;20395;-71
2021/12/18 06:36:14;;;;;;;22.98;13.18;;;;;;;2.66;100.00;100662.91;4148373;28;20413;-71
2021/12/18 06:38:15;;;;;;;24.15;13.05;;;;;;;2.68;100.00;100669.75;4150023;28;20290;-71
2021/12/18 06:40:15;;;;;;;23.23;12.32;;;;;;;2.68;100.00;100667.00;4150141;28;20068;-71
2021/12/18 06:42:15;;;;;;;20.63;11.77;;;;;;;2.71;100.00;100669.19;4152272;28;20061;-71
2021/12/18 06:44:16;;;;;;;24.00;11.52;;;;;;;2.67;100.00;100659.91;4151462;28;20467;-71
2021/12/18 06:46:16;;;;;;;23.48;10.60;;;;;;;2.73;100.00;100667.03;4151906;28;20025;-71
2021/12/18 06:48:16;;;;;;;17.75;9.90;;;;;;;2.74;100.00;100665.94;4150119;28;20387;-71
2021/12/18 06:50:17;;;;;;;16.67;8.93;;;;;;;2.74;100.00;100670.56;4152226;28;20438;-71
2021/12/18 06:52:17;;;;;;;14.80;6.95;;;;;;;2.76;100.00;100662.91;4151251;28;20064;-71
2021/12/18 06:54:18;;;;;;;15.35;6.68;;;;;;;2.74;100.00;100667.84;4152127;28;20410;-71
2021/12/18 06:56:18;;;;;;;13.98;6.90;;;;;;;2.73;100.00;100663.44;4150181;28;20337;-71
2021/12/18 06:58:19;;;;;;;12.07;6.10;;;;;;;2.72;100.00;100659.88;4151194;28;20489;-71
2021/12/18 07:00:20;;;;;;;12.13;6.72;;;;;;;2.75;100.00;100659.38;4152103;28;20525;-71
2021/12/18 07:02:21;;;;;;;11.23;6.95;;;;;;;2.76;100.00;100663.75;4150804;28;20094;-71
2021/12/18 07:04:24;;;;;;;8.45;5.95;;;;;;;2.83;100.00;100662.66;4152065;28;20045;-71
2021/12/18 07:06:25;;;;;;;10.20;5.88;;;;;;;2.85;100.00;100658.53;4150922;28;20045;-71
2021/12/18 07:08:25;;;;;;;12.82;5.88;;;;;;;2.87;100.00;100664.53;4151644;28;20041;-71
2021/12/18 07:10:26;;;;;;;14.23;7.35;;;;;;;2.87;100.00;100663.72;4152896;28;20056;-71
2021/12/18 07:12:26;;;;;;;13.13;7.95;;;;;;;2.88;100.00;100668.91;4155267;28;20311;-71
2021/12/18 07:14:27;;;;;;;12.18;6.97;;;;;;;2.89;100.00;100672.47;4154566;28;20050;-71
2021/12/18 07:16:27;;;;;;;12.77;7.15;;;;;;;2.86;100.00;100662.09;4155197;28;20521;-71
2021/12/18 07:18:28;;;;;;;15.27;7.90;;;;;;;2.88;100.00;100659.91;4153387;28;20123;-71
2021/12/18 07:20:29;;;;;;;13.80;8.55;;;;;;;2.84;100.00;100654.16;4155185;28;20045;-71
2021/12/18 07:22:29;;;;;;;16.15;8.85;;;;;;;2.89;100.00;100667.81;4154774;28;20047;-71
2021/12/18 07:24:29;;;;;;;13.55;7.82;;;;;;;2.91;100.00;100654.72;4155734;28;20075;-71
2021/12/18 07:26:32;;;;;;;16.88;11.20;;;;;;;2.89;100.00;100659.63;4154096;28;20052;-71
2021/12/18 07:28:32;;;;;;;20.98;11.85;;;;;;;2.90;100.00;100660.47;4154949;28;20073;-71
2021/12/18 07:30:33;;;;;;;12.52;7.30;;;;;;;2.91;100.00;100660.19;4153497;28;20134;-71
2021/12/18 07:32:33;;;;;;;13.38;7.53;;;;;;;2.93;100.00;100660.72;4153919;28;20045;-71
2021/12/18 07:34:34;;;;;;;10.65;6.00;;;;;;;2.92;100.00;100659.09;4153540;28;20506;-71
2021/12/18 07:36:34;;;;;;;10.18;5.30;;;;;;;2.94;100.00;100653.34;4153543;28;20627;-71
2021/12/18 07:38:35;;;;;;;10.88;6.32;;;;;;;2.93;100.00;100658.00;4153929;28;20037;-71
2021/12/18 07:40:35;;;;;;;9.98;5.53;;;;;;;2.96;100.00;100673.84;4155493;28;20041;-71
2021/12/18 07:42:36;;;;;;;12.52;6.55;;;;;;;3.03;100.00;100668.09;4154008;28;20041;-71
2021/12/18 07:44:36;;;;;;;12.80;7.43;;;;;;;3.01;100.00;100662.91;4154527;28;20069;-71
2021/12/18 07:46:38;;;;;;;14.23;8.18;;;;;;;3.03;100.00;100663.44;4153252;28;20056;-71
2021/12/18 07:48:38;;;;;;;14.43;8.32;;;;;;;2.98;100.00;100657.16;4154032;28;20053;-71
2021/12/18 07:50:39;;;;;;;8.32;4.85;;;;;;;3.05;100.00;100674.09;4154907;28;20125;-71
2021/12/18 07:52:39;;;;;;;15.15;6.20;;;;;;;3.03;100.00;100668.91;4153236;28;20037;-71
2021/12/18 07:54:40;;;;;;;10.02;5.40;;;;;;;3.00;100.00;100666.75;4153284;28;20130;-71
2021/12/18 07:56:41;;;;;;;9.75;5.07;;;;;;;2.99;100.00;100672.50;4151780;28;20049;-71
2021/12/18 07:58:41;;;;;;;9.60;4.50;;;;;;;3.06;100.00;100675.75;4152749;28;20803;-71
2021/12/18 08:00:41;;;;;;;8.80;4.88;;;;;;;3.03;100.00;100671.66;4154364;28;20113;-71
2021/12/18 08:02:42;;;;;;;9.93;5.45;;;;;;;3.03;100.00;100670.84;4154550;28;20052;-71
2021/12/18 08:04:42;;;;;;;11.15;5.43;;;;;;;3.02;100.00;100674.66;4154951;28;20069;-71
2021/12/18 08:06:42;;;;;;;9.27;5.72;;;;;;;3.07;100.00;100670.03;4153343;28;20052;-71
2021/12/18 08:08:43;;;;;;;7.65;5.10;;;;;;;3.14;100.00;100675.19;4154293;28;20069;-71
2021/12/18 08:10:43;;;;;;;9.00;4.95;;;;;;;3.11;100.00;100675.75;4154580;28;20112;-71
2021/12/18 08:12:43;;;;;;;6.90;4.28;;;;;;;3.11;100.00;100675.75;4154536;28;20585;-71
2021/12/18 08:14:44;;;;;;;9.27;4.40;;;;;;;3.09;100.00;100667.00;4154153;28;20316;-71
2021/12/18 08:16:44;;;;;;;10.35;4.95;;;;;;;3.10;100.00;100672.19;4152869;28;20396;-71
2021/12/18 08:18:45;;;;;;;7.65;4.20;;;;;;;3.09;100.00;100670.56;4153848;28;20116;-71
2021/12/18 08:20:45;;;;;;;7.40;4.35;;;;;;;3.13;100.00;100659.06;4153963;28;20121;-71
2021/12/18 08:22:45;;;;;;;9.00;5.80;;;;;;;3.13;100.00;100662.59;4153431;28;20436;-71
2021/12/18 08:24:46;;;;;;;8.48;4.97;;;;;;;3.14;100.00;100658.78;4154910;28;20064;-71
2021/12/18 08:26:46;;;;;;;8.45;5.35;;;;;;;3.14;100.00;100652.47;4152671;28;20408;-71
2021/12/18 08:28:46;;;;;;;14.52;7.55;;;;;;;3.17;100.00;100651.94;4153905;28;20079;-71
2021/12/18 08:30:47;;;;;;;11.75;7.65;;;;;;;3.19;100.00;100658.78;4154025;28;20049;-71
2021/12/18 08:32:47;;;;;;;10.52;7.30;;;;;;;3.21;100.00;100655.75;4154242;28;20048;-71
2021/12/18 08:34:47;;;;;;;8.50;4.40;;;;;;;3.27;100.00;100657.41;4153321;28;20053;-71
2021/12/18 08:36:48;;;;;;;6.55;4.43;;;;;;;3.29;100.00;100650.53;4150873;28;20053;-71
2021/12/18 08:38:48;;;;;;;6.90;4.70;;;;;;;3.29;100.00;100650.53;4153499;28;20052;-71
2021/12/18 08:40:50;;;;;;;8.02;3.97;;;;;;;3.30;100.00;100649.44;4153766;28;20491;-71
2021/12/18 08:42:51;;;;;;;8.53;3.37;;;;;;;3.28;100.00;100651.66;4151273;28;20467;-71
2021/12/18 08:44:51;;;;;;;4.95;3.05;;;;;;;3.28;100.00;100645.34;4152111;28;20068;-71
2021/12/18 08:46:51;;;;;;;5.03;2.60;;;;;;;3.31;100.00;100645.63;4150943;28;20128;-71
2021/12/18 08:48:52;;;;;;;4.72;2.83;;;;;;;3.33;100.00;100648.09;4151631;28;20045;-71
2021/12/18 08:50:52;;;;;;;3.80;2.42;;;;;;;3.39;100.00;100646.97;4152237;28;20100;-71
2021/12/18 08:52:52;;;;;;;4.10;2.50;;;;;;;3.38;100.00;100645.31;4153770;28;20132;-71
2021/12/18 08:54:53;;;;;;;4.00;2.80;;;;;;;3.39;100.00;100644.22;4154383;28;20411;-71
2021/12/18 08:56:53;;;;;;;4.72;2.50;;;;;;;3.38;100.00;100640.66;4153055;28;20513;-71
2021/12/18 08:58:54;;;;;;;3.38;2.22;;;;;;;3.36;100.00;100640.13;4153634;28;20255;-71
2021/12/18 09:00:54;;;;;;;9.85;4.22;;;;;;;3.46;100.00;100643.94;4152889;28;20095;-71
2021/12/18 09:02:55;;;;;;;6.13;3.83;;;;;;;3.43;100.00;100645.31;4153467;28;20483;-71
2021/12/18 09:04:55;;;;;;;7.65;4.53;;;;;;;3.46;100.00;100649.41;4153936;28;20045;-71
2021/12/18 09:06:56;;;;;;;10.07;5.40;;;;;;;3.43;100.00;100644.50;4152881;28;20054;-71
2021/12/18 09:08:56;;;;;;;9.20;4.75;;;;;;;3.45;100.00;100647.78;4154036;28;20045;-71
2021/12/18 09:10:57;;;;;;;7.88;6.00;;;;;;;3.47;100.00;100640.91;4151667;28;20486;-71
2021/12/18 09:12:57;;;;;;;12.48;8.43;;;;;;;3.47;100.00;100642.84;4153334;28;20045;-71
2021/12/18 09:14:58;;;;;;;14.52;9.65;;;;;;;3.50;100.00;100645.84;4153400;28;20045;-71
2021/12/18 09:16:58;;;;;;;12.35;5.45;;;;;;;3.53;100.00;100644.47;4153664;28;20546;-71
2021/12/18 09:18:59;;;;;;;15.02;9.30;;;;;;;3.52;100.00;100640.91;4153200;28;20275;-71
2021/12/18 09:21:01;;;;;;;14.55;9.40;;;;;;;3.55;100.00;100648.56;4153369;28;20461;-71
2021/12/18 09:23:02;;;;;;;24.92;14.00;;;;;;;3.55;100.00;100648.56;4154266;28;20497;-71
2021/12/18 09:25:05;;;;;;;28.60;15.50;;;;;;;3.55;100.00;100647.75;4152879;28;20049;-71
2021/12/18 09:27:06;;;;;;;11.23;6.05;;;;;;;3.58;100.00;100641.72;4149692;28;20049;-71
2021/12/18 09:29:07;;;;;;;15.52;9.63;;;;;;;3.60;100.00;100654.03;4149839;28;20256;-71
2021/12/18 09:31:07;;;;;;;15.45;8.25;;;;;;;3.60;100.00;100647.72;4150806;28;20551;-71
2021/12/18 09:33:11;;;;;;;11.48;7.82;;;;;;;3.59;100.00;100641.44;4150436;28;20487;-71
2021/12/18 09:35:12;;;;;;;9.30;6.53;;;;;;;3.57;100.00;100634.63;4150010;28;20427;-71
2021/12/18 09:37:12;;;;;;;12.52;6.05;;;;;;;3.62;100.00;100640.88;4150735;28;20053;-71
2021/12/18 09:39:14;;;;;;;9.30;6.13;;;;;;;3.62;100.00;100640.06;4152255;28;20500;-71
2021/12/18 09:41:14;;;;;;;8.32;5.13;;;;;;;3.60;100.00;100642.25;4153155;28;20401;-71
2021/12/18 09:43:15;;;;;;;13.20;7.28;;;;;;;3.62;100.00;100649.09;4151744;28;20164;-71
2021/12/18 09:45:16;;;;;;;15.38;8.18;;;;;;;3.64;100.00;100649.66;4152715;28;20053;-71
2021/12/18 09:47:19;;;;;;;16.90;9.10;;;;;;;3.69;100.00;100642.50;4152330;28;20502;-71
2021/12/18 09:49:20;;;;;;;21.70;13.57;;;;;;;3.67;100.00;100638.13;4151643;28;20099;-71
2021/12/18 09:51:23;;;;;;;18.40;9.45;;;;;;;3.69;100.00;100631.53;4152645;28;20045;-71
2021/12/18 09:53:24;;;;;;;18.02;10.63;;;;;;;3.77;100.00;100639.19;4152398;28;20133;-71
2021/12/18 09:55:24;;;;;;;25.48;13.38;;;;;;;3.81;100.00;100629.31;4152542;28;20092;-71
2021/12/18 09:57:25;;;;;;;24.38;12.65;;;;;;;3.81;100.00;100634.78;4152382;28;20454;-71
2021/12/18 09:59:26;;;;;;;15.05;7.30;;;;;;;3.81;100.00;100632.06;4152459;28;20513;-71